sensor_id;sensor_type;location;lat;lon;timestamp;pressure;altitude;pressure_sealevel;temperature;humidity
56928;BME280;60850;52.502;13.426;2022-07-24T00:02:20;101539.41;;;15.77;100.00
56928;BME280;60850;52.502;13.426;2022-07-24T00:04:47;101536.00;;;15.72;100.00
56928;BME280;60850;52.502;13.426;2022-07-24T00:07:14;101537.97;;;15.67;100.00
56928;BME280;60850;52.502;13.426;2022-07-24T00:09:41;101537.25;;;15.62;100.00
56928;BME280;60850;52.502;13.426;2022-07-24T00:12:08;101539.94;;;15.62;100.00
56928;BME280;60850;52.502;13.426;2022-07-24T00:14:36;101538.13;;;15.62;100.00
56928;BME280;60850;52.502;13.426;2022-07-24T00:17:03;101546.28;;;15.59;100.00
56928;BME280;60850;52.502;13.426;2022-07-24T00:19:30;101541.88;;;15.57;100.00
56928;BME280;60850;52.502;13.426;2022-07-24T00:21:57;101547.28;;;15.55;100.00
56928;BME280;60850;52.502;13.426;2022-07-24T00:24:25;101548.34;;;15.51;100.00
56928;BME280;60850;52.502;13.426;2022-07-24T00:26:52;101540.31;;;15.50;100.00
56928;BME280;60850;52.502;13.426;2022-07-24T00:29:18;101544.94;;;15.46;100.00
56928;BME280;60850;52.502;13.426;2022-07-24T00:31:47;101547.69;;;15.45;100.00
56928;BME280;60850;52.502;13.426;2022-07-24T00:34:13;101545.13;;;15.40;100.00
56928;BME280;60850;52.502;13.426;2022-07-24T00:36:40;101550.63;;;15.37;100.00
56928;BME280;60850;52.502;13.426;2022-07-24T00:39:08;101552.53;;;15.33;100.00
56928;BME280;60850;52.502;13.426;2022-07-24T00:41:35;101550.81;;;15.31;100.00
56928;BME280;60850;52.502;13.426;2022-07-24T00:44:05;101560.72;;;15.29;100.00
56928;BME280;60850;52.502;13.426;2022-07-24T00:46:33;101556.41;;;15.25;100.00
56928;BME280;60850;52.502;13.426;2022-07-24T00:49:03;101558.25;;;15.23;100.00
56928;BME280;60850;52.502;13.426;2022-07-24T00:51:31;101561.03;;;15.20;100.00
56928;BME280;60850;52.502;13.426;2022-07-24T00:53:57;101566.47;;;15.18;100.00
56928;BME280;60850;52.502;13.426;2022-07-24T00:56:24;101566.53;;;15.17;100.00
56928;BME280;60850;52.502;13.426;2022-07-24T00:58:51;101566.59;;;15.14;100.00
56928;BME280;60850;52.502;13.426;2022-07-24T01:01:18;101561.28;;;15.12;100.00
56928;BME280;60850;52.502;13.426;2022-07-24T01:03:45;101564.91;;;15.11;100.00
56928;BME280;60850;52.502;13.426;2022-07-24T01:06:14;101562.28;;;15.08;100.00
56928;BME280;60850;52.502;13.426;2022-07-24T01:08:41;101565.88;;;15.08;100.00
56928;BME280;60850;52.502;13.426;2022-07-24T01:11:10;101561.53;;;15.04;100.00
56928;BME280;60850;52.502;13.426;2022-07-24T01:13:37;101572.38;;;15.01;100.00
56928;BME280;60850;52.502;13.426;2022-07-24T01:16:05;101576.84;;;15.01;100.00
56928;BME280;60850;52.502;13.426;2022-07-24T01:18:32;101576.03;;;14.99;100.00
56928;BME280;60850;52.502;13.426;2022-07-24T01:21:01;101577.00;;;14.96;100.00
56928;BME280;60850;52.502;13.426;2022-07-24T01:23:27;101578.91;;;14.93;100.00
56928;BME280;60850;52.502;13.426;2022-07-24T01:25:54;101579.88;;;14.90;100.00
56928;BME280;60850;52.502;13.426;2022-07-24T01:28:21;101574.63;;;14.87;100.00
56928;BME280;60850;52.502;13.426;2022-07-24T01:30:48;101574.56;;;14.89;100.00
56928;BME280;60850;52.502;13.426;2022-07-24T01:33:15;101571.13;;;14.83;100.00
56928;BME280;60850;52.502;13.426;2022-07-24T01:35:42;101569.38;;;14.82;100.00
56928;BME280;60850;52.502;13.426;2022-07-24T01:38:11;101570.38;;;14.80;100.00
56928;BME280;60850;52.502;13.426;2022-07-24T01:40:39;101573.13;;;14.77;100.00
56928;BME280;60850;52.502;13.426;2022-07-24T01:43:07;101571.31;;;14.77;100.00
56928;BME280;60850;52.502;13.426;2022-07-24T01:45:40;101568.69;;;14.76;100.00
56928;BME280;60850;52.502;13.426;2022-07-24T01:48:06;101578.56;;;14.75;100.00
56928;BME280;60850;52.502;13.426;2022-07-24T01:50:33;101572.34;;;14.73;100.00
56928;BME280;60850;52.502;13.426;2022-07-24T01:53:01;101576.03;;;14.69;100.00
56928;BME280;60850;52.502;13.426;2022-07-24T01:55:30;101583.28;;;14.67;100.00
56928;BME280;60850;52.502;13.426;2022-07-24T01:57:57;101584.22;;;14.65;100.00
56928;BME280;60850;52.502;13.426;2022-07-24T02:00:23;101580.66;;;14.64;100.00
56928;BME280;60850;52.502;13.426;2022-07-24T02:02:50;101576.41;;;14.57;100.00
56928;BME280;60850;52.502;13.426;2022-07-24T02:05:17;101593.38;;;14.57;100.00
56928;BME280;60850;52.502;13.426;2022-07-24T02:07:44;101583.63;;;14.55;100.00
56928;BME280;60850;52.502;13.426;2022-07-24T02:10:13;101587.28;;;14.52;100.00
56928;BME280;60850;52.502;13.426;2022-07-24T02:12:41;101580.16;;;14.51;100.00
56928;BME280;60850;52.502;13.426;2022-07-24T02:15:09;101574.00;;;14.48;100.00
56928;BME280;60850;52.502;13.426;2022-07-24T02:17:36;101576.75;;;14.45;100.00
56928;BME280;60850;52.502;13.426;2022-07-24T02:20:04;101587.50;;;14.45;100.00
56928;BME280;60850;52.502;13.426;2022-07-24T02:22:31;101587.50;;;14.45;100.00
56928;BME280;60850;52.502;13.426;2022-07-24T02:24:59;101587.59;;;14.40;100.00
56928;BME280;60850;52.502;13.426;2022-07-24T02:27:26;101584.94;;;14.40;100.00
56928;BME280;60850;52.502;13.426;2022-07-24T02:29:54;101581.38;;;14.40;100.00
56928;BME280;60850;52.502;13.426;2022-07-24T02:32:21;101584.16;;;14.35;100.00
56928;BME280;60850;52.502;13.426;2022-07-24T02:34:48;101573.50;;;14.34;100.00
56928;BME280;60850;52.502;13.426;2022-07-24T02:37:14;101578.94;;;14.30;100.00
56928;BME280;60850;52.502;13.426;2022-07-24T02:39:41;101586.19;;;14.27;100.00
56928;BME280;60850;52.502;13.426;2022-07-24T02:42:08;101580.94;;;14.24;100.00
56928;BME280;60850;52.502;13.426;2022-07-24T02:44:35;101584.50;;;14.24;100.00
56928;BME280;60850;52.502;13.426;2022-07-24T02:47:03;101578.38;;;14.19;100.00
56928;BME280;60850;52.502;13.426;2022-07-24T02:49:30;101572.19;;;14.17;100.00
56928;BME280;60850;52.502;13.426;2022-07-24T02:51:57;101585.66;;;14.14;100.00
56928;BME280;60850;52.502;13.426;2022-07-24T02:54:24;101588.38;;;14.13;100.00
56928;BME280;60850;52.502;13.426;2022-07-24T02:56:50;101594.63;;;14.13;100.00
56928;BME280;60850;52.502;13.426;2022-07-24T02:59:17;101592.88;;;14.12;100.00
56928;BME280;60850;52.502;13.426;2022-07-24T03:01:44;101595.56;;;14.12;100.00
56928;BME280;60850;52.502;13.426;2022-07-24T03:04:12;101594.69;;;14.12;100.00
56928;BME280;60850;52.502;13.426;2022-07-24T03:06:39;101589.38;;;14.10;100.00
56928;BME280;60850;52.502;13.426;2022-07-24T03:09:06;101593.75;;;14.13;100.00
56928;BME280;60850;52.502;13.426;2022-07-24T03:11:33;101600.88;;;14.14;100.00
56928;BME280;60850;52.502;13.426;2022-07-24T03:14:00;101598.13;;;14.15;100.00
56928;BME280;60850;52.502;13.426;2022-07-24T03:16:26;101598.13;;;14.15;100.00
56928;BME280;60850;52.502;13.426;2022-07-24T03:18:53;101604.38;;;14.16;100.00
56928;BME280;60850;52.502;13.426;2022-07-24T03:21:21;101605.19;;;14.19;100.00
56928;BME280;60850;52.502;13.426;2022-07-24T03:23:48;101609.63;;;14.20;100.00
56928;BME280;60850;52.502;13.426;2022-07-24T03:26:15;101616.69;;;14.23;100.00
56928;BME280;60850;52.502;13.426;2022-07-24T03:28:42;101609.56;;;14.22;100.00
56928;BME280;60850;52.502;13.426;2022-07-24T03:31:09;101614.00;;;14.24;100.00
56928;BME280;60850;52.502;13.426;2022-07-24T03:33:36;101616.63;;;14.26;100.00
56928;BME280;60850;52.502;13.426;2022-07-24T03:36:03;101625.44;;;14.29;100.00
56928;BME280;60850;52.502;13.426;2022-07-24T03:38:31;101624.53;;;14.30;100.00
56928;BME280;60850;52.502;13.426;2022-07-24T03:40:58;101619.16;;;14.30;100.00
56928;BME280;60850;52.502;13.426;2022-07-24T03:43:24;101622.75;;;14.31;100.00
56928;BME280;60850;52.502;13.426;2022-07-24T03:45:51;101623.59;;;14.33;100.00
56928;BME280;60850;52.502;13.426;2022-07-24T03:48:18;101619.97;;;14.34;100.00
56928;BME280;60850;52.502;13.426;2022-07-24T03:50:45;101624.28;;;14.40;100.00
56928;BME280;60850;52.502;13.426;2022-07-24T03:53:11;101624.09;;;14.47;100.00
56928;BME280;60850;52.502;13.426;2022-07-24T03:55:40;101631.09;;;14.53;100.00
56928;BME280;60850;52.502;13.426;2022-07-24T03:58:06;101634.56;;;14.56;100.00
56928;BME280;60850;52.502;13.426;2022-07-24T04:00:33;101635.38;;;14.60;100.00
56928;BME280;60850;52.502;13.426;2022-07-24T04:03:00;101628.97;;;14.64;100.00
56928;BME280;60850;52.502;13.426;2022-07-24T04:05:27;101626.13;;;14.70;100.00
56928;BME280;60850;52.502;13.426;2022-07-24T04:07:54;101637.59;;;14.75;100.00
56928;BME280;60850;52.502;13.426;2022-07-24T04:10:21;101634.78;;;14.80;100.00
56928;BME280;60850;52.502;13.426;2022-07-24T04:12:49;101639.06;;;14.87;100.00
56928;BME280;60850;52.502;13.426;2022-07-24T04:15:16;101633.63;;;14.89;100.00
56928;BME280;60850;52.502;13.426;2022-07-24T04:17:43;101631.66;;;14.94;100.00
56928;BME280;60850;52.502;13.426;2022-07-24T04:20:11;101636.91;;;14.98;100.00
56928;BME280;60850;52.502;13.426;2022-07-24T04:22:38;101632.34;;;15.02;100.00
56928;BME280;60850;52.502;13.426;2022-07-24T04:25:06;101633.91;;;15.09;100.00
56928;BME280;60850;52.502;13.426;2022-07-24T04:27:33;101636.44;;;15.14;100.00
56928;BME280;60850;52.502;13.426;2022-07-24T04:30:02;101646.94;;;15.21;100.00
56928;BME280;60850;52.502;13.426;2022-07-24T04:32:29;101646.75;;;15.27;100.00
56928;BME280;60850;52.502;13.426;2022-07-24T04:34:56;101635.81;;;15.33;100.00
56928;BME280;60850;52.502;13.426;2022-07-24T04:37:23;101638.25;;;15.41;100.00
56928;BME280;60850;52.502;13.426;2022-07-24T04:39:50;101637.19;;;15.47;100.00
56928;BME280;60850;52.502;13.426;2022-07-24T04:42:16;101637.75;;;15.56;100.00
56928;BME280;60850;52.502;13.426;2022-07-24T04:44:43;101641.06;;;15.66;100.00
56928;BME280;60850;52.502;13.426;2022-07-24T04:47:11;101642.34;;;15.81;100.00
56928;BME280;60850;52.502;13.426;2022-07-24T04:49:38;101657.50;;;16.10;100.00
56928;BME280;60850;52.502;13.426;2022-07-24T04:52:05;101656.22;;;16.20;100.00
56928;BME280;60850;52.502;13.426;2022-07-24T04:54:32;101664.00;;;16.29;100.00
56928;BME280;60850;52.502;13.426;2022-07-24T04:56:58;101648.09;;;17.40;100.00
56928;BME280;60850;52.502;13.426;2022-07-24T04:59:25;101642.88;;;19.02;100.00
56928;BME280;60850;52.502;13.426;2022-07-24T05:01:52;101630.94;;;20.66;90.20
56928;BME280;60850;52.502;13.426;2022-07-24T05:04:20;101632.56;;;21.81;79.21
56928;BME280;60850;52.502;13.426;2022-07-24T05:06:47;101642.22;;;21.71;75.97
56928;BME280;60850;52.502;13.426;2022-07-24T05:09:14;101642.53;;;21.50;73.78
56928;BME280;60850;52.502;13.426;2022-07-24T05:11:41;101641.13;;;20.45;78.55
56928;BME280;60850;52.502;13.426;2022-07-24T05:14:07;101640.19;;;19.75;84.42
56928;BME280;60850;52.502;13.426;2022-07-24T05:16:34;101647.03;;;19.28;89.89
56928;BME280;60850;52.502;13.426;2022-07-24T05:19:01;101640.00;;;18.86;92.64
56928;BME280;60850;52.502;13.426;2022-07-24T05:21:29;101640.28;;;18.80;94.08
56928;BME280;60850;52.502;13.426;2022-07-24T05:23:57;101642.34;;;18.93;92.34
56928;BME280;60850;52.502;13.426;2022-07-24T05:26:27;101638.28;;;18.64;93.78
56928;BME280;60850;52.502;13.426;2022-07-24T05:28:53;101641.53;;;18.52;94.98
56928;BME280;60850;52.502;13.426;2022-07-24T05:31:20;101645.44;;;19.61;91.77
56928;BME280;60850;52.502;13.426;2022-07-24T05:33:47;101646.19;;;20.34;84.38
56928;BME280;60850;52.502;13.426;2022-07-24T05:36:14;101645.53;;;19.94;85.65
56928;BME280;60850;52.502;13.426;2022-07-24T05:38:42;101640.22;;;20.78;83.16
56928;BME280;60850;52.502;13.426;2022-07-24T05:41:09;101635.44;;;23.79;64.51
56928;BME280;60850;52.502;13.426;2022-07-24T05:43:36;101631.56;;;25.96;50.75
56928;BME280;60850;52.502;13.426;2022-07-24T05:46:04;101630.69;;;27.98;43.47
56928;BME280;60850;52.502;13.426;2022-07-24T05:48:30;101637.91;;;29.53;39.17
56928;BME280;60850;52.502;13.426;2022-07-24T05:50:57;101639.91;;;31.24;35.01
56928;BME280;60850;52.502;13.426;2022-07-24T05:53:24;101641.25;;;33.22;30.91
56928;BME280;60850;52.502;13.426;2022-07-24T05:55:52;101634.16;;;34.92;27.97
56928;BME280;60850;52.502;13.426;2022-07-24T05:58:19;101636.88;;;36.25;25.68
56928;BME280;60850;52.502;13.426;2022-07-24T06:00:46;101643.22;;;37.30;24.34
56928;BME280;60850;52.502;13.426;2022-07-24T06:03:13;101648.13;;;38.22;22.67
56928;BME280;60850;52.502;13.426;2022-07-24T06:05:39;101645.75;;;39.03;21.88
56928;BME280;60850;52.502;13.426;2022-07-24T06:08:06;101651.00;;;39.74;21.72
56928;BME280;60850;52.502;13.426;2022-07-24T06:10:34;101651.31;;;40.39;20.47
56928;BME280;60850;52.502;13.426;2022-07-24T06:13:02;101662.41;;;41.25;19.62
56928;BME280;60850;52.502;13.426;2022-07-24T06:15:29;101646.09;;;41.66;18.69
56928;BME280;60850;52.502;13.426;2022-07-24T06:17:56;101649.09;;;42.03;17.91
56928;BME280;60850;52.502;13.426;2022-07-24T06:20:22;101653.56;;;42.11;17.93
56928;BME280;60850;52.502;13.426;2022-07-24T06:22:49;101650.03;;;42.47;17.19
56928;BME280;60850;52.502;13.426;2022-07-24T06:25:17;101654.16;;;42.69;16.85
56928;BME280;60850;52.502;13.426;2022-07-24T06:27:46;101649.19;;;42.90;16.62
56928;BME280;60850;52.502;13.426;2022-07-24T06:30:16;101650.97;;;43.09;16.73
56928;BME280;60850;52.502;13.426;2022-07-24T06:32:43;101651.47;;;43.54;16.43
56928;BME280;60850;52.502;13.426;2022-07-24T06:35:10;101644.47;;;44.05;16.12
56928;BME280;60850;52.502;13.426;2022-07-24T06:37:37;101643.66;;;44.40;15.20
56928;BME280;60850;52.502;13.426;2022-07-24T06:40:05;101644.41;;;44.47;15.62
56928;BME280;60850;52.502;13.426;2022-07-24T06:42:32;101641.25;;;44.79;15.66
56928;BME280;60850;52.502;13.426;2022-07-24T06:44:59;101643.81;;;44.92;15.38
56928;BME280;60850;52.502;13.426;2022-07-24T06:47:27;101643.03;;;45.20;14.95
56928;BME280;60850;52.502;13.426;2022-07-24T06:49:54;101646.06;;;45.70;14.61
56928;BME280;60850;52.502;13.426;2022-07-24T06:52:21;101645.78;;;45.84;14.26
56928;BME280;60850;52.502;13.426;2022-07-24T06:54:49;101646.97;;;45.88;14.62
56928;BME280;60850;52.502;13.426;2022-07-24T06:57:16;101643.19;;;46.27;14.51
56928;BME280;60850;52.502;13.426;2022-07-24T06:59:43;101637.75;;;46.76;13.93
56928;BME280;60850;52.502;13.426;2022-07-24T07:02:10;101631.41;;;46.86;13.93
56928;BME280;60850;52.502;13.426;2022-07-24T07:04:39;101642.06;;;47.01;13.52
56928;BME280;60850;52.502;13.426;2022-07-24T07:07:06;101649.91;;;47.38;13.14
56928;BME280;60850;52.502;13.426;2022-07-24T07:09:32;101645.91;;;47.33;13.17
56928;BME280;60850;52.502;13.426;2022-07-24T07:12:01;101637.22;;;47.40;13.65
56928;BME280;60850;52.502;13.426;2022-07-24T07:14:28;101643.94;;;47.83;12.84
56928;BME280;60850;52.502;13.426;2022-07-24T07:16:54;101639.69;;;47.80;12.88
56928;BME280;60850;52.502;13.426;2022-07-24T07:19:21;101642.66;;;47.96;12.53
56928;BME280;60850;52.502;13.426;2022-07-24T07:21:49;101642.41;;;47.48;12.56
56928;BME280;60850;52.502;13.426;2022-07-24T07:24:16;101640.16;;;47.23;12.83
56928;BME280;60850;52.502;13.426;2022-07-24T07:26:43;101634.72;;;47.00;12.63
56928;BME280;60850;52.502;13.426;2022-07-24T07:29:10;101633.56;;;47.40;13.27
56928;BME280;60850;52.502;13.426;2022-07-24T07:31:37;101634.13;;;47.42;12.47
56928;BME280;60850;52.502;13.426;2022-07-24T07:34:04;101639.75;;;47.58;12.26
56928;BME280;60850;52.502;13.426;2022-07-24T07:36:31;101633.13;;;48.02;12.31
56928;BME280;60850;52.502;13.426;2022-07-24T07:39:00;101628.19;;;48.24;12.10
56928;BME280;60850;52.502;13.426;2022-07-24T07:41:27;101633.72;;;48.36;11.93
56928;BME280;60850;52.502;13.426;2022-07-24T07:43:54;101625.00;;;48.90;11.67
56928;BME280;60850;52.502;13.426;2022-07-24T07:46:24;101628.84;;;49.21;11.26
56928;BME280;60850;52.502;13.426;2022-07-24T07:48:50;101629.22;;;48.87;11.58
56928;BME280;60850;52.502;13.426;2022-07-24T07:51:18;101629.16;;;48.72;11.83
56928;BME280;60850;52.502;13.426;2022-07-24T07:53:44;101625.41;;;49.09;11.55
56928;BME280;60850;52.502;13.426;2022-07-24T07:56:12;101627.44;;;49.29;11.55
56928;BME280;60850;52.502;13.426;2022-07-24T07:58:39;101624.81;;;49.12;11.89
56928;BME280;60850;52.502;13.426;2022-07-24T08:01:06;101630.84;;;49.31;12.11
56928;BME280;60850;52.502;13.426;2022-07-24T08:03:33;101626.31;;;49.30;11.33
56928;BME280;60850;52.502;13.426;2022-07-24T08:06:00;101626.56;;;49.18;11.16
56928;BME280;60850;52.502;13.426;2022-07-24T08:08:29;101624.06;;;49.32;11.50
56928;BME280;60850;52.502;13.426;2022-07-24T08:10:56;101623.75;;;49.33;12.11
56928;BME280;60850;52.502;13.426;2022-07-24T08:13:24;101613.38;;;49.49;10.93
56928;BME280;60850;52.502;13.426;2022-07-24T08:15:51;101615.56;;;49.32;12.12
56928;BME280;60850;52.502;13.426;2022-07-24T08:18:18;101611.03;;;49.31;11.29
56928;BME280;60850;52.502;13.426;2022-07-24T08:20:45;101606.28;;;48.84;11.21
56928;BME280;60850;52.502;13.426;2022-07-24T08:23:12;101609.19;;;48.52;11.43
56928;BME280;60850;52.502;13.426;2022-07-24T08:25:39;101618.00;;;48.60;10.90
56928;BME280;60850;52.502;13.426;2022-07-24T08:28:06;101606.50;;;48.77;11.23
56928;BME280;60850;52.502;13.426;2022-07-24T08:30:34;101613.97;;;48.93;12.23
56928;BME280;60850;52.502;13.426;2022-07-24T08:33:01;101603.19;;;48.90;10.78
56928;BME280;60850;52.502;13.426;2022-07-24T08:35:28;101608.84;;;48.90;11.40
56928;BME280;60850;52.502;13.426;2022-07-24T08:37:54;101610.03;;;48.15;11.50
56928;BME280;60850;52.502;13.426;2022-07-24T08:40:22;101605.75;;;48.12;10.73
56928;BME280;60850;52.502;13.426;2022-07-24T08:42:49;101605.25;;;48.21;10.62
56928;BME280;60850;52.502;13.426;2022-07-24T08:45:16;101597.75;;;47.72;11.39
56928;BME280;60850;52.502;13.426;2022-07-24T08:47:44;101595.19;;;47.44;10.96
56928;BME280;60850;52.502;13.426;2022-07-24T08:50:11;101599.81;;;46.67;11.74
56928;BME280;60850;52.502;13.426;2022-07-24T08:52:38;101599.28;;;46.70;11.74
56928;BME280;60850;52.502;13.426;2022-07-24T08:55:06;101595.41;;;46.76;11.90
56928;BME280;60850;52.502;13.426;2022-07-24T08:57:33;101589.69;;;46.16;12.07
56928;BME280;60850;52.502;13.426;2022-07-24T09:00:00;101586.09;;;46.54;12.30
56928;BME280;60850;52.502;13.426;2022-07-24T09:02:27;101589.22;;;46.96;12.03
56928;BME280;60850;52.502;13.426;2022-07-24T09:05:00;101588.84;;;47.10;11.66
56928;BME280;60850;52.502;13.426;2022-07-24T09:07:28;101590.06;;;47.41;11.46
56928;BME280;60850;52.502;13.426;2022-07-24T09:10:00;101592.97;;;47.73;11.64
56928;BME280;60850;52.502;13.426;2022-07-24T09:12:31;101589.91;;;48.11;11.76
56928;BME280;60850;52.502;13.426;2022-07-24T09:15:00;101591.03;;;48.42;11.14
56928;BME280;60850;52.502;13.426;2022-07-24T09:17:27;101595.66;;;48.59;11.21
56928;BME280;60850;52.502;13.426;2022-07-24T09:19:56;101599.78;;;48.88;11.30
56928;BME280;60850;52.502;13.426;2022-07-24T09:22:33;101601.25;;;49.01;11.01
56928;BME280;60850;52.502;13.426;2022-07-24T09:25:09;101589.88;;;48.91;10.66
56928;BME280;60850;52.502;13.426;2022-07-24T09:27:38;101594.09;;;48.83;11.19
56928;BME280;60850;52.502;13.426;2022-07-24T09:30:07;101582.50;;;48.85;11.57
56928;BME280;60850;52.502;13.426;2022-07-24T09:32:34;101590.41;;;48.83;10.94
56928;BME280;60850;52.502;13.426;2022-07-24T09:35:02;101588.25;;;48.53;11.55
56928;BME280;60850;52.502;13.426;2022-07-24T09:37:31;101583.75;;;48.57;11.50
56928;BME280;60850;52.502;13.426;2022-07-24T09:40:09;101581.38;;;48.38;11.42
56928;BME280;60850;52.502;13.426;2022-07-24T09:42:36;101573.88;;;48.22;11.59
56928;BME280;60850;52.502;13.426;2022-07-24T09:45:07;101581.72;;;48.10;11.37
56928;BME280;60850;52.502;13.426;2022-07-24T09:47:36;101579.38;;;48.02;11.77
56928;BME280;60850;52.502;13.426;2022-07-24T09:50:12;101580.59;;;47.84;11.80
56928;BME280;60850;52.502;13.426;2022-07-24T09:52:41;101585.19;;;47.58;11.45
56928;BME280;60850;52.502;13.426;2022-07-24T09:55:24;101567.44;;;47.41;11.92
56928;BME280;60850;52.502;13.426;2022-07-24T09:57:51;101579.16;;;47.27;11.93
56928;BME280;60850;52.502;13.426;2022-07-24T10:00:19;101575.03;;;47.13;12.50
56928;BME280;60850;52.502;13.426;2022-07-24T10:02:46;101569.78;;;47.00;12.45
56928;BME280;60850;52.502;13.426;2022-07-24T10:05:14;101566.53;;;46.69;12.05
56928;BME280;60850;52.502;13.426;2022-07-24T10:07:43;101566.53;;;46.14;12.57
56928;BME280;60850;52.502;13.426;2022-07-24T10:10:14;101565.06;;;45.78;13.35
56928;BME280;60850;52.502;13.426;2022-07-24T10:12:40;101577.03;;;45.28;13.51
56928;BME280;60850;52.502;13.426;2022-07-24T10:15:11;101560.75;;;44.54;13.65
56928;BME280;60850;52.502;13.426;2022-07-24T10:20:40;101556.25;;;42.68;15.12
56928;BME280;60850;52.502;13.426;2022-07-24T10:23:21;101560.50;;;41.46;16.29
56928;BME280;60850;52.502;13.426;2022-07-24T10:26:04;101563.22;;;39.83;17.35
56928;BME280;60850;52.502;13.426;2022-07-24T10:28:38;101550.72;;;38.07;19.18
56928;BME280;60850;52.502;13.426;2022-07-24T10:31:07;101545.94;;;36.56;20.74
56928;BME280;60850;52.502;13.426;2022-07-24T10:33:37;101544.19;;;35.34;22.41
56928;BME280;60850;52.502;13.426;2022-07-24T10:36:14;101544.56;;;34.36;23.15
56928;BME280;60850;52.502;13.426;2022-07-24T10:41:30;101535.13;;;32.65;25.79
56928;BME280;60850;52.502;13.426;2022-07-24T10:44:15;101528.97;;;31.93;26.43
56928;BME280;60850;52.502;13.426;2022-07-24T10:47:12;101530.06;;;31.29;28.17
56928;BME280;60850;52.502;13.426;2022-07-24T10:49:46;101526.31;;;30.75;28.03
56928;BME280;60850;52.502;13.426;2022-07-24T10:52:28;101530.00;;;30.19;28.51
56928;BME280;60850;52.502;13.426;2022-07-24T10:55:25;101540.16;;;29.70;29.55
56928;BME280;60850;52.502;13.426;2022-07-24T10:57:57;101529.72;;;29.25;30.44
56928;BME280;60850;52.502;13.426;2022-07-24T11:00:26;101525.00;;;28.96;30.97
56928;BME280;60850;52.502;13.426;2022-07-24T11:02:58;101529.56;;;28.77;31.96
56928;BME280;60850;52.502;13.426;2022-07-24T11:05:30;101534.25;;;28.55;32.24
56928;BME280;60850;52.502;13.426;2022-07-24T11:08:31;101528.81;;;28.34;32.94
56928;BME280;60850;52.502;13.426;2022-07-24T11:11:07;101531.41;;;28.15;33.68
56928;BME280;60850;52.502;13.426;2022-07-24T11:13:55;101524.06;;;27.95;33.70
56928;BME280;60850;52.502;13.426;2022-07-24T11:16:29;101519.41;;;27.85;34.23
56928;BME280;60850;52.502;13.426;2022-07-24T11:19:29;101521.19;;;27.75;34.48
56928;BME280;60850;52.502;13.426;2022-07-24T11:22:04;101531.19;;;27.65;34.76
56928;BME280;60850;52.502;13.426;2022-07-24T11:24:31;101517.13;;;27.58;34.90
56928;BME280;60850;52.502;13.426;2022-07-24T11:27:05;101513.78;;;27.55;35.60
56928;BME280;60850;52.502;13.426;2022-07-24T11:29:35;101517.16;;;27.47;35.51
56928;BME280;60850;52.502;13.426;2022-07-24T11:32:04;101517.31;;;27.46;34.93
56928;BME280;60850;52.502;13.426;2022-07-24T11:34:32;101511.28;;;27.31;35.34
56928;BME280;60850;52.502;13.426;2022-07-24T11:37:00;101513.78;;;27.23;36.09
56928;BME280;60850;52.502;13.426;2022-07-24T11:39:30;101513.16;;;27.19;36.28
56928;BME280;60850;52.502;13.426;2022-07-24T11:42:00;101502.34;;;27.18;36.27
56928;BME280;60850;52.502;13.426;2022-07-24T11:44:30;101499.25;;;27.11;36.09
56928;BME280;60850;52.502;13.426;2022-07-24T11:46:59;101497.81;;;27.07;35.91
56928;BME280;60850;52.502;13.426;2022-07-24T11:49:27;101492.53;;;27.04;36.32
56928;BME280;60850;52.502;13.426;2022-07-24T11:51:54;101499.78;;;26.94;36.85
56928;BME280;60850;52.502;13.426;2022-07-24T11:54:23;101487.97;;;26.93;36.85
56928;BME280;60850;52.502;13.426;2022-07-24T11:56:52;101485.34;;;26.92;37.06
56928;BME280;60850;52.502;13.426;2022-07-24T11:59:25;101479.50;;;26.96;37.05
56928;BME280;60850;52.502;13.426;2022-07-24T12:01:54;101479.25;;;26.99;37.06
56928;BME280;60850;52.502;13.426;2022-07-24T12:04:21;101479.84;;;27.03;36.43
56928;BME280;60850;52.502;13.426;2022-07-24T12:06:48;101480.84;;;27.02;36.09
56928;BME280;60850;52.502;13.426;2022-07-24T12:09:15;101479.25;;;26.99;35.88
56928;BME280;60850;52.502;13.426;2022-07-24T12:11:42;101465.72;;;26.87;35.77
56928;BME280;60850;52.502;13.426;2022-07-24T12:14:15;101472.94;;;26.88;35.83
56928;BME280;60850;52.502;13.426;2022-07-24T12:16:51;101461.25;;;26.86;36.96
56928;BME280;60850;52.502;13.426;2022-07-24T12:19:19;101467.47;;;26.88;36.87
56928;BME280;60850;52.502;13.426;2022-07-24T12:21:49;101470.56;;;26.94;36.09
56928;BME280;60850;52.502;13.426;2022-07-24T12:24:17;101472.66;;;26.91;36.20
56928;BME280;60850;52.502;13.426;2022-07-24T12:26:49;101462.13;;;26.86;35.78
56928;BME280;60850;52.502;13.426;2022-07-24T12:29:16;101458.63;;;26.84;35.66
56928;BME280;60850;52.502;13.426;2022-07-24T12:31:44;101458.25;;;26.77;35.73
56928;BME280;60850;52.502;13.426;2022-07-24T12:34:11;101460.28;;;26.75;36.13
56928;BME280;60850;52.502;13.426;2022-07-24T12:36:39;101449.09;;;26.67;35.35
56928;BME280;60850;52.502;13.426;2022-07-24T12:39:07;101445.22;;;26.70;36.80
56928;BME280;60850;52.502;13.426;2022-07-24T12:41:43;101447.31;;;26.77;36.11
56928;BME280;60850;52.502;13.426;2022-07-24T12:44:11;101440.34;;;26.84;35.89
56928;BME280;60850;52.502;13.426;2022-07-24T12:46:39;101449.91;;;26.90;36.64
56928;BME280;60850;52.502;13.426;2022-07-24T12:49:08;101440.31;;;26.96;36.62